createdAt,value
2022-11-11T04:10:45.201Z,7.59
2022-11-11T04:13:30.770Z,7.50
2022-11-11T04:16:06.254Z,7.78
2022-11-11T04:18:52.323Z,7.84
2022-11-11T04:21:37.766Z,7.82
2022-11-11T04:24:24.997Z,7.31
2022-11-11T04:26:51.519Z,7.33
2022-11-11T04:29:30.353Z,7.35
2022-11-11T04:32:22.319Z,7.33
2022-11-11T04:34:52.848Z,7.38
2022-11-11T04:37:20.203Z,7.32
2022-11-11T04:40:05.467Z,7.34
2022-11-11T04:42:33.019Z,7.45
2022-11-11T04:45:18.147Z,7.54
2022-11-11T04:48:07.693Z,7.52
2022-11-11T04:50:39.610Z,7.61
2022-11-11T04:53:12.678Z,7.49
2022-11-11T04:55:58.515Z,7.35
2022-11-11T04:58:27.136Z,7.41
2022-11-11T05:00:53.755Z,7.30
2022-11-11T05:03:22.383Z,7.15
2022-11-11T05:06:08.854Z,6.95
2022-11-11T05:08:56.177Z,6.96
2022-11-11T05:11:33.451Z,6.78
2022-11-11T05:14:23.681Z,6.81
2022-11-11T05:17:16.546Z,6.92
2022-11-11T05:20:02.364Z,6.88
2022-11-11T05:22:32.540Z,6.77
2022-11-11T05:25:17.875Z,6.80
2022-11-11T05:27:44.746Z,6.87
2022-11-11T05:30:13.286Z,7.04
2022-11-11T05:32:40.218Z,7.11
2022-11-11T05:35:08.013Z,6.74
2022-11-11T05:37:34.526Z,6.74
2022-11-11T05:40:01.317Z,6.73
2022-11-11T05:42:28.157Z,6.86
2022-11-11T05:44:54.759Z,6.54
2022-11-11T05:47:21.654Z,6.42
2022-11-11T05:49:48.233Z,6.44
2022-11-11T05:52:19.083Z,6.30
2022-11-11T05:54:45.918Z,6.52
2022-11-11T05:57:12.622Z,6.65
2022-11-11T05:59:39.261Z,6.53
2022-11-11T06:02:05.978Z,6.49
2022-11-11T06:04:35.214Z,6.51
2022-11-11T06:07:01.929Z,6.39
2022-11-11T06:09:28.657Z,6.25
2022-11-11T06:11:55.336Z,6.15
2022-11-11T06:14:22.088Z,6.05
2022-11-11T06:16:48.867Z,6.20
2022-11-11T06:19:15.482Z,6.02
2022-11-11T06:22:11.204Z,6.39
2022-11-11T06:24:37.917Z,6.48
2022-11-11T06:27:04.444Z,6.42
2022-11-11T06:29:31.569Z,6.59
2022-11-11T06:31:58.156Z,6.76
2022-11-11T06:34:25.112Z,6.69
2022-11-11T06:36:51.748Z,6.46
2022-11-11T06:39:18.408Z,6.34
2022-11-11T06:41:45.131Z,6.47
2022-11-11T06:44:11.721Z,6.64
2022-11-11T06:46:38.337Z,6.64
2022-11-11T06:49:04.950Z,6.51
2022-11-11T06:51:31.600Z,6.24
2022-11-11T06:53:58.217Z,6.24
2022-11-11T06:56:27.804Z,6.43
2022-11-11T06:58:54.343Z,6.40
2022-11-11T07:01:21.095Z,6.43
2022-11-11T07:03:47.686Z,6.46
2022-11-11T07:06:17.068Z,6.45
2022-11-11T07:08:44.755Z,6.37
2022-11-11T07:11:18.429Z,6.39
2022-11-11T07:13:46.065Z,6.39
2022-11-11T07:16:12.683Z,6.33
2022-11-11T07:18:39.201Z,6.42
2022-11-11T07:21:06.043Z,6.48
2022-11-11T07:23:35.624Z,6.59
2022-11-11T07:26:02.208Z,6.55
2022-11-11T07:28:28.965Z,6.21
2022-11-11T07:30:55.490Z,6.41
2022-11-11T07:33:24.751Z,6.38
2022-11-11T07:35:51.746Z,6.29
2022-11-11T07:38:18.269Z,6.43
2022-11-11T07:40:44.842Z,6.17
2022-11-11T07:43:11.380Z,6.32
2022-11-11T07:45:37.898Z,6.49
2022-11-11T07:48:04.664Z,6.36
2022-11-11T07:50:31.285Z,6.30
2022-11-11T07:52:57.843Z,6.42
2022-11-11T07:55:24.390Z,6.37
2022-11-11T07:57:54.156Z,6.46
2022-11-11T08:00:20.769Z,6.50
2022-11-11T08:02:50.674Z,6.69
2022-11-11T08:05:17.321Z,6.60
2022-11-11T08:07:43.938Z,6.74
2022-11-11T08:10:11.327Z,6.47
2022-11-11T08:12:57.062Z,6.68
2022-11-11T08:15:23.546Z,6.32
2022-11-11T08:17:50.051Z,6.36
2022-11-11T08:20:17.537Z,6.56
2022-11-11T08:23:01.251Z,6.45
2022-11-11T08:25:31.543Z,6.44
2022-11-11T08:28:02.533Z,6.38
2022-11-11T08:30:29.356Z,6.44
2022-11-11T08:33:26.543Z,6.57
2022-11-11T08:35:46.073Z,6.40
2022-11-11T08:38:14.720Z,6.41
2022-11-11T08:40:41.295Z,6.70
2022-11-11T08:43:07.962Z,6.87
2022-11-11T08:45:34.571Z,6.88
2022-11-11T08:48:01.080Z,6.69
2022-11-11T08:50:27.599Z,6.76
2022-11-11T08:52:54.156Z,6.53
2022-11-11T08:55:20.819Z,6.63
2022-11-11T08:57:47.381Z,6.46
2022-11-11T09:00:16.594Z,6.32
2022-11-11T09:02:43.137Z,6.51
2022-11-11T09:05:09.733Z,6.56
2022-11-11T09:07:36.276Z,6.41
2022-11-11T09:10:02.787Z,6.52
2022-11-11T09:12:29.231Z,6.73
2022-11-11T09:15:01.612Z,6.75
2022-11-11T09:17:29.758Z,6.86
2022-11-11T09:19:59.383Z,6.77
2022-11-11T09:22:25.933Z,6.87
2022-11-11T09:24:52.480Z,6.86
2022-11-11T09:27:19.248Z,6.85
2022-11-11T09:29:46.281Z,6.60
2022-11-11T09:32:12.824Z,6.85
2022-11-11T09:34:39.428Z,6.87
2022-11-11T09:37:06.003Z,7.01
2022-11-11T09:39:33.367Z,7.01
2022-11-11T09:42:23.185Z,7.03
2022-11-11T09:45:20.587Z,6.98
2022-11-11T09:48:04.956Z,6.99
2022-11-11T09:50:37.585Z,6.81
2022-11-11T09:53:07.155Z,7.05
2022-11-11T09:55:40.804Z,7.28
2022-11-11T09:58:19.318Z,7.29
2022-11-11T10:00:48.341Z,7.36
2022-11-11T10:03:22.943Z,7.40
2022-11-11T10:06:06.708Z,7.39
2022-11-11T10:08:43.689Z,7.29
2022-11-11T10:11:22.693Z,7.17
2022-11-11T10:13:49.218Z,7.43
2022-11-11T10:16:34.495Z,7.38
2022-11-11T10:19:21.657Z,7.34
2022-11-11T10:22:11.887Z,7.05
2022-11-11T10:24:48.348Z,7.17
2022-11-11T10:27:19.093Z,7.44
2022-11-11T10:29:46.234Z,7.39
2022-11-11T10:32:20.062Z,7.42
2022-11-11T10:34:46.776Z,7.26
2022-11-11T10:37:23.558Z,7.45
2022-11-11T10:40:26.405Z,7.59
2022-11-11T10:42:52.878Z,7.48
2022-11-11T10:45:46.760Z,7.44
2022-11-11T10:48:17.055Z,7.41
2022-11-11T10:50:54.888Z,7.46
2022-11-11T10:53:43.421Z,7.61
2022-11-11T10:56:16.885Z,7.57
2022-11-11T10:59:06.551Z,7.74
2022-11-11T11:02:01.420Z,7.96
2022-11-11T11:04:37.018Z,7.84
2022-11-11T11:07:08.677Z,7.87
2022-11-11T11:09:44.183Z,7.84
2022-11-11T11:12:37.269Z,7.63
2022-11-11T11:15:15.024Z,7.69
2022-11-11T11:17:55.442Z,7.77
2022-11-11T11:20:22.499Z,7.67
2022-11-11T11:22:53.137Z,7.56
2022-11-11T11:25:21.466Z,7.46
2022-11-11T11:27:50.471Z,7.56
2022-11-11T11:30:19.974Z,7.50
2022-11-11T11:33:00.675Z,7.77
2022-11-11T11:35:45.670Z,7.47
2022-11-11T11:38:15.853Z,7.43
2022-11-11T11:40:46.638Z,7.63
2022-11-11T11:43:27.202Z,7.52
2022-11-11T11:46:02.588Z,7.82
2022-11-11T11:48:50.172Z,7.55
2022-11-11T11:51:33.621Z,7.63
2022-11-11T11:54:35.192Z,7.90
2022-11-11T11:57:20.296Z,7.63
2022-11-11T12:00:00.203Z,7.68
2022-11-11T12:03:05.099Z,7.52
2022-11-11T12:05:44.638Z,7.60
2022-11-11T12:08:33.086Z,7.82
2022-11-11T12:11:18.493Z,8.08
2022-11-11T12:14:12.258Z,7.85
2022-11-11T12:16:49.963Z,7.91
2022-11-11T12:19:33.269Z,7.65
2022-11-11T12:22:15.835Z,7.98
2022-11-11T12:25:18.401Z,8.00
2022-11-11T12:27:44.929Z,8.14
2022-11-11T12:30:20.619Z,8.23
2022-11-11T12:33:02.500Z,8.19
2022-11-11T12:35:40.233Z,8.41
2022-11-11T12:38:22.772Z,8.19
2022-11-11T12:40:52.379Z,8.44
2022-11-11T12:43:28.688Z,8.53
2022-11-11T12:46:29.312Z,8.24
2022-11-11T12:49:11.182Z,8.19
2022-11-11T12:52:14.999Z,8.06
2022-11-11T12:54:53.430Z,8.03
2022-11-11T12:57:54.041Z,8.12
2022-11-11T13:00:25.439Z,8.13
2022-11-11T13:03:18.457Z,8.29
2022-11-11T13:06:06.116Z,8.26
2022-11-11T13:08:54.122Z,8.21
2022-11-11T13:11:29.513Z,7.96
2022-11-11T13:14:10.980Z,8.06
2022-11-11T13:16:37.561Z,8.28
2022-11-11T13:19:20.450Z,8.28
2022-11-11T13:21:56.339Z,8.42
2022-11-11T13:24:24.461Z,8.31
2022-11-11T13:27:04.863Z,8.20
2022-11-11T13:29:43.617Z,8.12
2022-11-11T13:32:12.171Z,8.16
2022-11-11T13:34:40.266Z,7.99
2022-11-11T13:37:09.416Z,7.75
2022-11-11T13:39:44.986Z,7.81
2022-11-11T13:42:15.795Z,7.94
2022-11-11T13:44:51.938Z,8.12
2022-11-11T13:47:21.256Z,8.32
2022-11-11T13:49:54.655Z,8.39
2022-11-11T13:52:28.395Z,8.39
2022-11-11T13:55:44.613Z,8.38
2022-11-11T13:58:33.995Z,8.32
2022-11-11T14:01:05.511Z,8.48
2022-11-11T14:03:35.342Z,8.26
2022-11-11T14:06:31.729Z,8.45
2022-11-11T14:08:58.569Z,8.33
2022-11-11T14:11:28.011Z,8.44
2022-11-11T14:13:55.592Z,8.37
2022-11-11T14:16:37.469Z,8.31
2022-11-11T14:19:19.523Z,8.13
2022-11-11T14:22:00.194Z,8.32
2022-11-11T14:24:37.054Z,8.48
2022-11-11T14:27:14.816Z,8.50
2022-11-11T14:29:55.739Z,8.42
2022-11-11T14:32:37.808Z,8.53
2022-11-11T14:35:22.941Z,8.43
2022-11-11T14:37:55.509Z,8.27
2022-11-11T14:40:31.199Z,8.24
2022-11-11T14:42:58.742Z,8.27
2022-11-11T14:45:31.565Z,8.23
2022-11-11T14:48:01.834Z,8.33
2022-11-11T14:50:32.794Z,8.24
2022-11-11T14:53:15.386Z,8.34
2022-11-11T14:55:45.847Z,8.29
2022-11-11T14:58:20.727Z,8.41
2022-11-11T15:01:14.513Z,8.14
2022-11-11T15:03:50.698Z,8.36
2022-11-11T15:06:28.974Z,8.33
2022-11-11T15:09:02.954Z,8.41
2022-11-11T15:11:55.578Z,8.33
2022-11-11T15:14:33.258Z,8.48
2022-11-11T15:17:15.355Z,8.41
2022-11-11T15:19:56.065Z,8.41
2022-11-11T15:22:46.997Z,8.47
2022-11-11T15:25:34.775Z,8.38
2022-11-11T15:28:22.988Z,8.48
2022-11-11T15:31:13.933Z,8.27
2022-11-11T15:33:40.337Z,8.33
2022-11-11T15:36:20.292Z,8.26
2022-11-11T15:38:47.332Z,8.23
2022-11-11T15:41:26.120Z,8.20
2022-11-11T15:43:55.787Z,8.30
2022-11-11T15:46:27.185Z,8.37
2022-11-11T15:48:53.775Z,8.34
2022-11-11T15:51:30.449Z,8.34
2022-11-11T15:54:23.518Z,8.32
2022-11-11T15:56:50.117Z,8.42
2022-11-11T15:59:24.645Z,8.28
2022-11-11T16:01:52.199Z,8.16
2022-11-11T16:04:54.017Z,8.26
2022-11-11T16:07:23.712Z,8.29
2022-11-11T16:09:50.523Z,8.22
2022-11-11T16:12:26.955Z,8.32
2022-11-11T16:14:55.040Z,8.30
2022-11-11T16:17:24.096Z,8.24
2022-11-11T16:19:53.960Z,8.19
2022-11-11T16:22:32.526Z,8.33
2022-11-11T16:24:59.687Z,8.32
2022-11-11T16:27:29.942Z,8.38
2022-11-11T16:29:56.505Z,8.38
2022-11-11T16:32:26.064Z,8.36
2022-11-11T16:34:54.176Z,8.30
2022-11-11T16:37:21.896Z,8.43
2022-11-11T16:39:51.026Z,8.34
2022-11-11T16:42:20.230Z,8.53
2022-11-11T16:44:56.794Z,8.45
2022-11-11T16:47:32.555Z,8.57
2022-11-11T16:50:20.995Z,8.63
2022-11-11T16:52:48.938Z,8.51
2022-11-11T16:55:35.801Z,8.45
2022-11-11T16:58:22.468Z,8.54
2022-11-11T17:01:01.319Z,8.58
2022-11-11T17:03:28.662Z,8.52
2022-11-11T17:05:59.701Z,8.58
2022-11-11T17:08:38.367Z,8.54
2022-11-11T17:11:06.981Z,8.48
2022-11-11T17:13:38.007Z,8.57
2022-11-11T17:16:08.711Z,8.58
2022-11-11T17:18:39.181Z,8.62
2022-11-11T17:21:05.994Z,8.66
2022-11-11T17:23:36.431Z,8.67
2022-11-11T17:26:06.301Z,8.68
2022-11-11T17:28:35.078Z,8.68
2022-11-11T17:31:13.383Z,8.60
2022-11-11T17:33:39.962Z,8.52
2022-11-11T17:36:07.629Z,8.63
2022-11-11T17:38:40.084Z,8.66
2022-11-11T17:41:06.766Z,8.49
2022-11-11T17:43:33.557Z,8.37
2022-11-11T17:46:04.216Z,8.39
2022-11-11T17:48:31.138Z,8.56
2022-11-11T17:50:58.022Z,8.44
2022-11-11T17:53:24.850Z,8.37
2022-11-11T17:55:51.543Z,8.50
2022-11-11T17:58:19.453Z,8.49
2022-11-11T18:00:46.836Z,8.56
2022-11-11T18:03:13.491Z,8.42
2022-11-11T18:05:40.128Z,8.51
2022-11-11T18:08:06.806Z,8.51
2022-11-11T18:10:36.159Z,8.55
2022-11-11T18:13:05.699Z,8.53
2022-11-11T18:15:35.333Z,8.32
2022-11-11T18:18:01.881Z,8.35
2022-11-11T18:20:28.514Z,8.35
2022-11-11T18:22:56.667Z,8.37
2022-11-11T18:25:23.875Z,8.31
2022-11-11T18:27:53.317Z,8.34
2022-11-11T18:30:20.289Z,8.34
2022-11-11T18:32:47.225Z,8.45
2022-11-11T18:35:13.870Z,8.47
2022-11-11T18:37:46.217Z,8.40
2022-11-11T18:40:16.082Z,8.42
2022-11-11T18:42:42.700Z,8.38
2022-11-11T18:45:09.639Z,8.44
2022-11-11T18:47:36.200Z,8.49
2022-11-11T18:50:03.111Z,8.36
2022-11-11T18:52:29.667Z,8.42
2022-11-11T18:54:56.243Z,8.37
2022-11-11T18:57:22.899Z,8.20
2022-11-11T18:59:49.458Z,8.16
2022-11-11T19:02:16.088Z,8.34
2022-11-11T19:04:42.920Z,8.21
2022-11-11T19:07:09.684Z,8.04
2022-11-11T19:09:36.304Z,8.12
2022-11-11T19:12:02.930Z,8.00
2022-11-11T19:14:29.468Z,8.15
2022-11-11T19:16:56.018Z,8.12
2022-11-11T19:19:25.113Z,8.05
2022-11-11T19:21:51.656Z,8.14
2022-11-11T19:24:18.296Z,8.14
2022-11-11T19:26:47.678Z,7.99
2022-11-11T19:29:14.515Z,8.03
2022-11-11T19:31:41.063Z,7.86
2022-11-11T19:34:10.627Z,7.84
2022-11-11T19:36:37.390Z,7.79
2022-11-11T19:39:04.970Z,7.63
2022-11-11T19:41:32.620Z,7.53
2022-11-11T19:43:59.345Z,7.79
2022-11-11T19:46:27.954Z,7.65
2022-11-11T19:49:01.276Z,7.79
2022-11-11T19:51:29.955Z,7.67
2022-11-11T19:53:57.618Z,7.77
2022-11-11T19:56:25.472Z,7.68
2022-11-11T19:58:52.061Z,7.68
2022-11-11T20:01:21.088Z,7.74
2022-11-11T20:03:48.262Z,7.60
2022-11-11T20:06:33.006Z,7.25
2022-11-11T20:09:01.963Z,7.15
2022-11-11T20:11:29.385Z,7.18
2022-11-11T20:13:56.566Z,7.07
2022-11-11T20:16:23.657Z,7.15
2022-11-11T20:18:54.706Z,7.13
2022-11-11T20:21:24.891Z,7.12
2022-11-11T20:23:51.459Z,7.08
2022-11-11T20:26:18.368Z,7.29
2022-11-11T20:28:45.108Z,7.20
2022-11-11T20:31:16.141Z,7.26
2022-11-11T20:33:43.141Z,7.46
2022-11-11T20:36:11.976Z,7.38
2022-11-11T20:38:39.185Z,7.52
2022-11-11T20:41:16.988Z,7.42
2022-11-11T20:43:44.676Z,7.40
2022-11-11T20:46:16.337Z,7.50
2022-11-11T20:48:44.560Z,7.57
2022-11-11T20:51:19.130Z,7.40
2022-11-11T20:53:45.928Z,7.42
2022-11-11T20:56:18.194Z,7.49
2022-11-11T20:58:50.263Z,7.40
2022-11-11T21:01:21.892Z,7.62
2022-11-11T21:03:53.438Z,7.70
2022-11-11T21:06:20.017Z,7.70
2022-11-11T21:08:47.243Z,7.59
2022-11-11T21:11:18.247Z,7.68
2022-11-11T21:13:45.974Z,7.62
2022-11-11T21:16:17.800Z,7.49
2022-11-11T21:18:45.526Z,7.50
2022-11-11T21:21:15.215Z,7.47
2022-11-11T21:23:41.775Z,7.43
2022-11-11T21:26:13.105Z,7.46
2022-11-11T21:28:41.260Z,7.53
2022-11-11T21:31:09.588Z,7.35
2022-11-11T21:33:37.001Z,7.33
2022-11-11T21:36:07.950Z,7.27
2022-11-11T21:38:38.433Z,7.24
2022-11-11T21:41:11.051Z,7.12
2022-11-11T21:43:38.629Z,7.36
2022-11-11T21:46:06.864Z,7.13
2022-11-11T21:48:34.499Z,7.22
2022-11-11T21:51:10.493Z,7.24
2022-11-11T21:53:38.895Z,7.22
2022-11-11T21:56:13.519Z,7.22
2022-11-11T21:58:42.043Z,7.16
2022-11-11T22:01:13.738Z,7.21
2022-11-11T22:03:42.162Z,7.17
2022-11-11T22:06:11.009Z,7.25
2022-11-11T22:08:38.177Z,7.13
2022-11-11T22:11:07.412Z,7.03
2022-11-11T22:13:38.115Z,6.93
2022-11-11T22:16:09.493Z,6.89
2022-11-11T22:18:43.372Z,6.82
2022-11-11T22:21:22.373Z,6.98
2022-11-11T22:23:51.330Z,6.79
2022-11-11T22:26:19.226Z,6.69
2022-11-11T22:28:51.062Z,6.85
2022-11-11T22:31:28.402Z,6.84
2022-11-11T22:33:56.714Z,6.80
2022-11-11T22:36:23.624Z,6.85
2022-11-11T22:38:50.189Z,6.84
2022-11-11T22:41:18.917Z,6.80
2022-11-11T22:44:02.438Z,6.94
2022-11-11T22:46:30.339Z,6.74
2022-11-11T22:49:01.985Z,6.76
2022-11-11T22:51:32.450Z,6.84
2022-11-11T22:54:01.372Z,6.83
2022-11-11T22:56:31.366Z,6.93
2022-11-11T22:58:58.484Z,6.97
2022-11-11T23:01:31.297Z,6.76
2022-11-11T23:04:00.447Z,6.73
2022-11-11T23:06:32.654Z,6.75
2022-11-11T23:08:59.846Z,6.56
2022-11-11T23:11:30.865Z,6.17
2022-11-11T23:14:00.523Z,6.23
2022-11-11T23:16:27.383Z,6.54
2022-11-11T23:18:54.289Z,6.46
2022-11-11T23:21:22.320Z,6.06
2022-11-11T23:23:50.525Z,6.35
2022-11-11T23:26:28.180Z,6.46
2022-11-11T23:28:55.323Z,6.60
2022-11-11T23:31:30.203Z,6.61
2022-11-11T23:33:59.333Z,6.77
2022-11-11T23:36:27.884Z,6.55
2022-11-11T23:38:54.766Z,6.49
2022-11-11T23:41:21.505Z,6.36
2022-11-11T23:43:48.066Z,6.30
2022-11-11T23:46:17.499Z,6.36
2022-11-11T23:48:44.347Z,6.41
2022-11-11T23:51:12.537Z,6.53
2022-11-11T23:53:39.085Z,6.52
2022-11-11T23:56:06.430Z,6.60
2022-11-11T23:58:32.956Z,6.54
